Tetbury, United Kingdom
Current Conditions -  °F | °C
As of 7:18 PM on Saturday 25 Oct 2014 (Local Time) from EGVA Reporting Station
Overcast Overcast  
Wind Chill: 12°   Ceiling: 2600
Heat Index: 12°   Visibility: 6mi
Dew Point:   Wind: 9mph
Humidity: 82%   Direction: 240°WSW
Pressure: 30.08"   Gusts: NA
Location:  51.64°N, 2.16°W
Report Text: EGVA 251818Z AUTO 24008KT 9999 BKN026 OVC038 12/09 A3008 RMK AO2 CIG 026V039 BKN V SCT
Loading
Personal Weather Stations






























Interactive Weather Map
Tropical Storm Tracking
New forecast layout! Learn more

10-Day Weather Forecast

Advertisements
Track Severe Weather on mobile